createdAt,value
2023-01-25T00:00:11.968Z,76.48
2023-01-25T00:02:35.624Z,77.65
2023-01-25T00:04:59.182Z,76.58
2023-01-25T00:07:24.164Z,76.81
2023-01-25T00:09:47.702Z,77.33
2023-01-25T00:12:11.311Z,77.55
2023-01-25T00:14:34.841Z,77.99
2023-01-25T00:16:58.390Z,76.94
2023-01-25T00:19:22.357Z,76.53
2023-01-25T00:21:46.017Z,76.24
2023-01-25T00:24:11.809Z,75.94
2023-01-25T00:26:36.700Z,76.37
2023-01-25T00:29:00.261Z,76.41
2023-01-25T00:31:34.323Z,76.41
2023-01-25T00:34:07.703Z,76.50
2023-01-25T00:36:41.944Z,76.63
2023-01-25T00:39:08.283Z,76.61
2023-01-25T00:41:33.816Z,77.18
2023-01-25T00:43:58.085Z,77.49
2023-01-25T00:46:21.656Z,77.08
2023-01-25T00:48:45.567Z,77.29
2023-01-25T00:51:09.097Z,76.76
2023-01-25T00:53:32.937Z,76.74
2023-01-25T00:55:56.467Z,76.83
2023-01-25T00:58:21.508Z,76.81
2023-01-25T01:00:45.175Z,76.37
2023-01-25T01:03:08.803Z,76.82
2023-01-25T01:05:32.397Z,77.56
2023-01-25T01:07:57.837Z,78.54
2023-01-25T01:10:21.365Z,77.56
2023-01-25T01:12:47.012Z,77.87
2023-01-25T01:15:12.619Z,77.54
2023-01-25T01:17:36.678Z,77.35
2023-01-25T01:20:00.207Z,77.20
2023-01-25T01:22:23.773Z,77.46
2023-01-25T01:24:49.922Z,77.36
2023-01-25T01:27:13.621Z,76.90
2023-01-25T01:29:37.198Z,77.95
2023-01-25T01:32:02.375Z,77.16
2023-01-25T01:34:26.014Z,77.24
2023-01-25T01:36:51.085Z,78.62
2023-01-25T01:39:14.869Z,78.89
2023-01-25T01:41:39.327Z,78.73
2023-01-25T01:44:04.763Z,77.86
2023-01-25T01:46:35.121Z,77.90
2023-01-25T01:49:04.287Z,77.15
2023-01-25T01:51:46.827Z,79.05
2023-01-25T01:54:21.245Z,77.95
2023-01-25T01:56:52.567Z,77.80
2023-01-25T01:59:16.888Z,78.90
2023-01-25T02:01:41.051Z,78.86
2023-01-25T02:04:08.877Z,78.99
2023-01-25T02:06:42.011Z,78.82
2023-01-25T02:09:06.034Z,78.39
2023-01-25T02:11:30.648Z,77.99
2023-01-25T02:13:56.185Z,77.95
2023-01-25T02:16:25.590Z,78.04
2023-01-25T02:18:49.232Z,78.52
2023-01-25T02:21:14.241Z,79.39
2023-01-25T02:23:48.584Z,78.99
2023-01-25T02:26:13.885Z,79.48
2023-01-25T02:28:42.911Z,79.28
2023-01-25T02:31:07.358Z,78.78
2023-01-25T02:33:31.039Z,78.75
2023-01-25T02:36:01.492Z,77.77
2023-01-25T02:38:25.090Z,79.07
2023-01-25T02:40:57.218Z,78.83
2023-01-25T02:43:22.635Z,78.79
2023-01-25T02:45:50.510Z,78.08
2023-01-25T02:48:14.112Z,77.68
2023-01-25T02:50:37.658Z,77.48
2023-01-25T02:53:01.245Z,78.31
2023-01-25T02:55:24.800Z,78.40
2023-01-25T02:57:48.449Z,78.92
2023-01-25T03:00:15.168Z,78.68
2023-01-25T03:02:40.351Z,77.46
2023-01-25T03:05:03.962Z,77.33
2023-01-25T03:07:27.707Z,77.94
2023-01-25T03:09:52.452Z,77.28
2023-01-25T03:12:16.117Z,77.82
2023-01-25T03:14:41.166Z,77.69
2023-01-25T03:17:07.543Z,77.84
2023-01-25T03:19:31.598Z,78.12
2023-01-25T03:21:55.315Z,78.76
2023-01-25T03:24:20.031Z,78.45
2023-01-25T03:27:02.157Z,77.81
2023-01-25T03:29:34.567Z,77.76
2023-01-25T03:32:00.166Z,77.85
2023-01-25T03:34:25.149Z,78.46
2023-01-25T03:36:50.079Z,77.88
2023-01-25T03:39:14.580Z,77.71
2023-01-25T03:41:40.194Z,77.68
2023-01-25T03:44:06.872Z,77.82
2023-01-25T03:46:30.507Z,78.08
2023-01-25T03:48:54.540Z,79.17
2023-01-25T03:51:19.642Z,79.59
2023-01-25T03:53:43.159Z,78.47
2023-01-25T03:56:17.643Z,77.90
2023-01-25T03:58:48.602Z,78.01
2023-01-25T04:01:12.417Z,77.36
2023-01-25T04:03:36.512Z,77.80
2023-01-25T04:06:01.768Z,77.85
2023-01-25T04:08:28.553Z,77.38
2023-01-25T04:10:53.671Z,77.53
2023-01-25T04:13:17.621Z,77.43
2023-01-25T04:15:41.248Z,77.57
2023-01-25T04:18:13.781Z,76.97
2023-01-25T04:20:37.435Z,77.24
2023-01-25T04:23:01.374Z,78.21
2023-01-25T04:25:32.921Z,77.66
2023-01-25T04:27:56.625Z,77.10
2023-01-25T04:30:20.918Z,77.68
2023-01-25T04:32:46.166Z,77.94
2023-01-25T04:35:17.002Z,77.52
2023-01-25T04:37:40.965Z,78.27
2023-01-25T04:40:05.371Z,77.66
2023-01-25T04:42:35.337Z,78.30
2023-01-25T04:44:58.948Z,77.97
2023-01-25T04:47:23.765Z,78.12
2023-01-25T04:49:47.467Z,77.98
2023-01-25T04:52:14.254Z,77.59
2023-01-25T04:54:37.768Z,77.39
2023-01-25T04:57:01.760Z,77.39
2023-01-25T04:59:26.829Z,77.19
2023-01-25T05:01:51.539Z,77.66
2023-01-25T05:04:15.150Z,77.47
2023-01-25T05:06:41.957Z,77.24
2023-01-25T05:09:05.938Z,77.93
2023-01-25T05:11:31.422Z,78.47
2023-01-25T05:14:17.800Z,78.05
2023-01-25T05:16:44.197Z,77.95
2023-01-25T05:19:07.784Z,78.05
2023-01-25T05:22:00.818Z,78.65
2023-01-25T05:24:30.962Z,78.19
2023-01-25T05:27:03.671Z,77.70
2023-01-25T05:29:57.143Z,78.57
2023-01-25T05:32:38.939Z,78.12
2023-01-25T05:35:02.918Z,78.00
2023-01-25T05:37:26.705Z,77.55
2023-01-25T05:39:58.384Z,77.60
2023-01-25T05:42:22.507Z,77.23
2023-01-25T05:44:47.956Z,77.76
2023-01-25T05:47:15.135Z,77.62
2023-01-25T05:49:40.624Z,78.35
2023-01-25T05:52:07.167Z,78.47
2023-01-25T05:54:31.808Z,77.66
2023-01-25T05:57:00.254Z,77.51
2023-01-25T05:59:23.890Z,77.35
2023-01-25T06:01:48.048Z,78.03
2023-01-25T06:04:14.378Z,77.98
2023-01-25T06:06:39.314Z,78.44
2023-01-25T06:09:03.596Z,78.47
2023-01-25T06:11:27.205Z,77.87
2023-01-25T06:13:52.689Z,78.68
2023-01-25T06:16:18.461Z,79.17
2023-01-25T06:19:14.079Z,78.71
2023-01-25T06:21:57.011Z,78.83
2023-01-25T06:24:21.416Z,78.03
2023-01-25T06:26:45.046Z,77.88
2023-01-25T06:29:08.951Z,79.67
2023-01-25T06:31:32.939Z,80.23
2023-01-25T06:33:59.221Z,79.65
2023-01-25T06:36:24.412Z,78.72
2023-01-25T06:38:52.584Z,78.48
2023-01-25T06:41:16.141Z,78.17
2023-01-25T06:43:39.895Z,77.73
2023-01-25T06:46:05.351Z,78.03
2023-01-25T06:48:29.801Z,78.58
2023-01-25T06:50:57.048Z,78.76
2023-01-25T06:53:20.696Z,78.80
2023-01-25T06:55:45.615Z,78.83
2023-01-25T06:58:09.164Z,78.76
2023-01-25T07:00:32.723Z,79.66
2023-01-25T07:02:56.426Z,79.56
2023-01-25T07:05:20.005Z,79.78
2023-01-25T07:07:47.288Z,79.82
2023-01-25T07:10:12.235Z,80.46
2023-01-25T07:12:37.335Z,80.67
2023-01-25T07:15:00.931Z,80.03
2023-01-25T07:17:24.863Z,80.25
2023-01-25T07:19:48.788Z,81.20
2023-01-25T07:22:12.404Z,80.64
2023-01-25T07:24:35.938Z,81.24
2023-01-25T07:26:59.552Z,82.34
2023-01-25T07:29:24.747Z,81.00
2023-01-25T07:31:48.449Z,82.59
2023-01-25T07:34:14.200Z,81.75
2023-01-25T07:36:38.475Z,81.11
2023-01-25T07:39:01.997Z,81.75
2023-01-25T07:41:27.189Z,81.70
2023-01-25T07:43:50.861Z,82.70
2023-01-25T07:46:27.096Z,82.00
2023-01-25T07:48:52.576Z,81.82
2023-01-25T07:51:27.122Z,81.28
2023-01-25T07:53:52.394Z,82.32
2023-01-25T07:56:15.907Z,82.48
2023-01-25T07:58:39.854Z,81.34
2023-01-25T08:01:08.700Z,81.67
2023-01-25T08:03:33.722Z,82.05
2023-01-25T08:05:57.223Z,82.23
2023-01-25T08:08:20.903Z,82.43
2023-01-25T08:10:44.434Z,82.28
2023-01-25T08:13:08.311Z,82.92
2023-01-25T08:15:31.879Z,82.94
2023-01-25T08:17:55.420Z,82.65
2023-01-25T08:20:22.534Z,82.38
2023-01-25T08:22:46.128Z,82.20
2023-01-25T08:25:10.729Z,82.08
2023-01-25T08:27:34.651Z,84.15
2023-01-25T08:29:58.161Z,83.80
2023-01-25T08:32:21.863Z,83.06
2023-01-25T08:34:45.383Z,82.12
2023-01-25T08:37:10.328Z,83.67
2023-01-25T08:39:34.488Z,82.04
2023-01-25T08:41:58.093Z,81.39
2023-01-25T08:44:24.140Z,81.47
2023-01-25T08:46:47.707Z,81.73
2023-01-25T08:49:11.520Z,81.19
2023-01-25T08:51:35.404Z,80.70
2023-01-25T08:54:04.395Z,81.33
2023-01-25T08:56:27.972Z,82.05
2023-01-25T08:58:52.067Z,84.37
2023-01-25T09:01:17.904Z,84.01
2023-01-25T09:03:44.167Z,82.88
2023-01-25T09:06:09.223Z,82.06
2023-01-25T09:08:33.276Z,82.02
2023-01-25T09:11:02.962Z,82.73
2023-01-25T09:13:26.678Z,82.91
2023-01-25T09:15:50.335Z,82.90
2023-01-25T09:18:14.812Z,82.31
2023-01-25T09:20:40.684Z,82.36
2023-01-25T09:23:04.217Z,82.60
2023-01-25T09:25:27.813Z,82.71
2023-01-25T09:27:53.079Z,82.42
2023-01-25T09:30:19.027Z,82.64
2023-01-25T09:32:49.689Z,82.57
2023-01-25T09:35:13.325Z,81.65
2023-01-25T09:37:36.856Z,81.65
2023-01-25T09:40:00.407Z,82.28
2023-01-25T09:42:59.613Z,82.47
2023-01-25T09:45:32.668Z,83.47
2023-01-25T09:48:02.003Z,83.22
2023-01-25T09:50:38.450Z,83.65
2023-01-25T09:53:34.993Z,84.89
2023-01-25T09:56:03.596Z,85.77
2023-01-25T09:58:34.564Z,84.62
2023-01-25T10:01:19.523Z,84.35
2023-01-25T10:03:57.305Z,84.80
2023-01-25T10:06:23.420Z,84.55
2023-01-25T10:08:55.097Z,84.38
2023-01-25T10:11:26.089Z,86.71
2023-01-25T10:13:51.211Z,86.57
2023-01-25T10:16:25.853Z,85.26
2023-01-25T10:19:04.378Z,85.66
2023-01-25T10:21:33.763Z,85.98
2023-01-25T10:24:47.193Z,86.25
2023-01-25T10:27:24.677Z,87.87
2023-01-25T10:29:51.539Z,88.09
2023-01-25T10:32:20.401Z,86.50
2023-01-25T10:34:56.209Z,87.08
2023-01-25T10:37:23.664Z,86.49
2023-01-25T10:39:55.862Z,86.94
2023-01-25T10:42:20.367Z,86.70
2023-01-25T10:44:43.959Z,86.02
2023-01-25T10:47:17.346Z,86.30
2023-01-25T10:49:44.550Z,87.79
2023-01-25T10:52:18.539Z,87.16
2023-01-25T10:54:42.320Z,86.49
2023-01-25T10:57:08.423Z,85.73
2023-01-25T10:59:32.539Z,85.32
2023-01-25T11:01:57.467Z,85.55
2023-01-25T11:04:35.074Z,84.08
2023-01-25T11:06:59.615Z,83.31
2023-01-25T11:09:36.752Z,86.22
2023-01-25T11:12:02.289Z,86.23
2023-01-25T11:14:28.493Z,86.63
2023-01-25T11:16:52.209Z,85.90
2023-01-25T11:19:34.488Z,89.55
2023-01-25T11:21:59.985Z,88.54
2023-01-25T11:24:29.591Z,87.68
2023-01-25T11:27:13.411Z,88.19
2023-01-25T11:29:36.994Z,87.80
2023-01-25T11:32:00.565Z,86.51
2023-01-25T11:34:28.770Z,87.58
2023-01-25T11:37:19.485Z,87.40
2023-01-25T11:39:59.859Z,87.11
2023-01-25T11:42:35.642Z,87.63
2023-01-25T11:45:36.025Z,88.61
2023-01-25T11:48:19.585Z,86.81
2023-01-25T11:50:47.508Z,87.49
2023-01-25T11:53:46.361Z,87.61
2023-01-25T11:56:22.391Z,85.84
2023-01-25T11:59:20.271Z,88.78
2023-01-25T12:02:08.537Z,87.93
2023-01-25T12:05:09.708Z,88.40
2023-01-25T12:07:52.901Z,87.92
2023-01-25T12:10:29.823Z,87.16
2023-01-25T12:13:03.845Z,86.74
2023-01-25T12:15:42.385Z,89.17
2023-01-25T12:18:45.057Z,88.44
2023-01-25T12:21:31.216Z,87.06
2023-01-25T12:24:20.980Z,86.59
2023-01-25T12:26:57.456Z,85.71
2023-01-25T12:29:28.162Z,86.50
2023-01-25T12:31:59.944Z,86.76
2023-01-25T12:34:28.437Z,86.77
2023-01-25T12:36:52.641Z,87.33
2023-01-25T12:39:24.398Z,87.79
2023-01-25T12:41:54.784Z,88.26
2023-01-25T12:44:24.762Z,87.73
2023-01-25T12:46:56.973Z,87.83
2023-01-25T12:49:29.749Z,87.67
2023-01-25T12:51:55.128Z,87.83
2023-01-25T12:54:24.621Z,87.39
2023-01-25T12:56:59.908Z,87.30
2023-01-25T12:59:35.295Z,87.32
2023-01-25T13:02:16.242Z,87.91
2023-01-25T13:04:56.856Z,88.78
2023-01-25T13:07:27.379Z,89.50
2023-01-25T13:10:00.919Z,87.85
2023-01-25T13:12:25.979Z,86.97
2023-01-25T13:14:49.478Z,86.48
2023-01-25T13:17:23.393Z,86.90
2023-01-25T13:19:46.991Z,86.85
2023-01-25T13:22:12.769Z,86.54
2023-01-25T13:25:11.241Z,89.59
2023-01-25T13:27:37.619Z,89.76
2023-01-25T13:30:30.796Z,87.97
2023-01-25T13:32:58.866Z,87.44
2023-01-25T13:35:38.084Z,86.93
2023-01-25T13:38:20.361Z,87.94
2023-01-25T13:40:43.967Z,86.82
2023-01-25T13:43:20.896Z,87.87
2023-01-25T13:45:46.095Z,87.55
2023-01-25T13:48:19.041Z,90.82
2023-01-25T13:50:50.266Z,91.19
2023-01-25T13:53:22.296Z,89.57
2023-01-25T13:55:48.287Z,88.95
2023-01-25T13:58:20.456Z,87.60
2023-01-25T14:00:54.716Z,88.01
2023-01-25T14:03:18.657Z,88.81
2023-01-25T14:05:50.382Z,88.00
2023-01-25T14:08:14.868Z,88.37
2023-01-25T14:10:38.770Z,88.96
2023-01-25T14:13:03.508Z,90.09
2023-01-25T14:15:30.699Z,90.49
2023-01-25T14:18:16.352Z,91.78
2023-01-25T14:20:40.185Z,91.19
2023-01-25T14:23:03.913Z,90.56
2023-01-25T14:25:27.578Z,90.88
2023-01-25T14:27:54.557Z,90.42
2023-01-25T14:30:24.027Z,91.60
2023-01-25T14:32:50.311Z,90.48
2023-01-25T14:35:53.669Z,89.21
2023-01-25T14:38:32.334Z,88.81
2023-01-25T14:41:00.352Z,88.01
2023-01-25T14:43:25.466Z,88.30
2023-01-25T14:45:49.051Z,88.98
2023-01-25T14:48:49.699Z,89.80
2023-01-25T14:51:21.487Z,90.07
2023-01-25T14:53:50.216Z,88.77
2023-01-25T14:56:35.483Z,88.73
2023-01-25T14:59:00.608Z,88.04
2023-01-25T15:01:34.982Z,87.86
2023-01-25T15:04:00.149Z,88.38
2023-01-25T15:06:23.905Z,87.88
2023-01-25T15:08:48.225Z,88.74
2023-01-25T15:11:38.766Z,90.21
2023-01-25T15:14:04.542Z,90.29
2023-01-25T15:16:34.895Z,89.85
2023-01-25T15:18:59.883Z,89.15
2023-01-25T15:21:27.218Z,89.01
2023-01-25T15:23:51.777Z,88.67
2023-01-25T15:26:21.157Z,89.01
2023-01-25T15:28:44.751Z,91.41
2023-01-25T15:31:08.424Z,92.49
2023-01-25T15:33:33.177Z,92.49
2023-01-25T15:35:58.072Z,93.06
2023-01-25T15:38:22.996Z,92.23
2023-01-25T15:40:47.404Z,91.34
2023-01-25T15:43:13.226Z,92.45
2023-01-25T15:45:36.804Z,91.62
2023-01-25T15:48:00.939Z,90.81
2023-01-25T15:50:24.445Z,90.20
2023-01-25T15:52:49.655Z,89.20
2023-01-25T15:55:15.293Z,89.13
2023-01-25T15:57:39.075Z,90.82
2023-01-25T16:00:02.872Z,91.06
2023-01-25T16:02:27.999Z,92.11
2023-01-25T16:04:51.623Z,91.24
2023-01-25T16:07:24.577Z,92.89
2023-01-25T16:09:50.120Z,92.30
2023-01-25T16:12:15.829Z,92.05
2023-01-25T16:14:39.499Z,92.59
2023-01-25T16:17:05.759Z,91.73
2023-01-25T16:19:30.002Z,90.90
2023-01-25T16:21:53.882Z,90.26
2023-01-25T16:24:18.139Z,90.00
2023-01-25T16:26:47.563Z,90.43
2023-01-25T16:29:14.277Z,90.15
2023-01-25T16:31:38.095Z,90.39
2023-01-25T16:34:02.740Z,90.05
2023-01-25T16:36:27.312Z,90.66
2023-01-25T16:38:51.425Z,92.85
2023-01-25T16:41:15.242Z,93.43
2023-01-25T16:43:43.058Z,93.01
2023-01-25T16:46:06.952Z,91.15
2023-01-25T16:48:30.564Z,91.16
2023-01-25T16:50:54.160Z,91.84
2023-01-25T16:53:17.818Z,91.32
2023-01-25T16:55:41.322Z,90.49
2023-01-25T16:58:04.993Z,90.83
2023-01-25T17:00:29.959Z,91.52
2023-01-25T17:02:59.106Z,91.39
2023-01-25T17:05:23.083Z,93.58
2023-01-25T17:07:51.319Z,93.05
2023-01-25T17:10:14.879Z,91.88
2023-01-25T17:12:38.933Z,90.55
2023-01-25T17:15:02.535Z,91.27
2023-01-25T17:17:29.858Z,92.21
2023-01-25T17:19:53.352Z,90.81
2023-01-25T17:22:17.057Z,90.97
2023-01-25T17:24:40.639Z,90.68
2023-01-25T17:27:05.118Z,90.81
2023-01-25T17:29:29.835Z,90.49
2023-01-25T17:31:53.922Z,91.34
2023-01-25T17:34:21.696Z,93.10
2023-01-25T17:36:46.210Z,92.35
2023-01-25T17:39:10.227Z,91.68
2023-01-25T17:41:34.331Z,91.23
2023-01-25T17:43:58.022Z,91.36
2023-01-25T17:46:26.135Z,92.48
2023-01-25T17:48:49.803Z,91.68
2023-01-25T17:51:15.127Z,90.77
2023-01-25T17:53:38.694Z,92.73
2023-01-25T17:56:03.965Z,92.69
2023-01-25T17:58:27.537Z,91.74
2023-01-25T18:00:52.390Z,92.31
2023-01-25T18:03:16.019Z,91.52
2023-01-25T18:05:39.845Z,90.39
2023-01-25T18:08:05.852Z,90.34
2023-01-25T18:10:29.518Z,90.26
2023-01-25T18:13:03.966Z,90.61
2023-01-25T18:15:28.035Z,92.15
2023-01-25T18:17:51.755Z,91.34
2023-01-25T18:20:15.914Z,91.25
2023-01-25T18:22:39.516Z,91.84
2023-01-25T18:25:04.801Z,92.02
2023-01-25T18:27:29.748Z,92.51
2023-01-25T18:30:01.163Z,92.03
2023-01-25T18:32:24.798Z,91.57
2023-01-25T18:34:48.842Z,91.34
2023-01-25T18:37:21.854Z,90.77
2023-01-25T18:39:45.709Z,92.33
2023-01-25T18:42:11.192Z,91.86
2023-01-25T18:44:35.183Z,92.28
2023-01-25T18:46:59.359Z,95.48
2023-01-25T18:49:22.943Z,95.46
2023-01-25T18:52:04.791Z,94.26
2023-01-25T18:54:30.830Z,92.62
2023-01-25T18:56:55.673Z,93.52
2023-01-25T18:59:20.692Z,93.22
2023-01-25T19:01:44.246Z,94.72
2023-01-25T19:04:07.849Z,95.17
2023-01-25T19:06:31.531Z,93.47
2023-01-25T19:08:56.516Z,92.27
2023-01-25T19:11:21.883Z,92.14
2023-01-25T19:13:46.071Z,92.18
2023-01-25T19:16:15.014Z,91.94
2023-01-25T19:18:44.524Z,92.26
2023-01-25T19:21:10.148Z,92.75
2023-01-25T19:23:35.279Z,91.88
2023-01-25T19:25:58.847Z,91.73
2023-01-25T19:28:23.049Z,91.58
2023-01-25T19:30:46.607Z,92.14
2023-01-25T19:33:11.552Z,92.79
2023-01-25T19:35:35.121Z,91.26
2023-01-25T19:37:58.678Z,91.42
2023-01-25T19:40:24.972Z,91.71
2023-01-25T19:42:48.564Z,92.21
2023-01-25T19:45:12.976Z,92.73
2023-01-25T19:47:37.007Z,92.71
2023-01-25T19:50:02.799Z,92.36
2023-01-25T19:52:26.412Z,93.11
2023-01-25T19:54:49.948Z,93.16
2023-01-25T19:57:13.583Z,92.51
2023-01-25T19:59:37.097Z,92.06
2023-01-25T20:02:00.783Z,91.34
2023-01-25T20:04:25.723Z,92.59
2023-01-25T20:06:51.877Z,92.64
2023-01-25T20:09:17.366Z,91.55
2023-01-25T20:11:41.290Z,90.66
2023-01-25T20:14:06.655Z,91.62
2023-01-25T20:16:32.490Z,90.45
2023-01-25T20:18:57.915Z,90.97
2023-01-25T20:21:23.534Z,92.21
2023-01-25T20:23:50.752Z,91.63
2023-01-25T20:26:17.758Z,91.44
2023-01-25T20:28:42.594Z,93.83
2023-01-25T20:31:06.742Z,94.93
2023-01-25T20:33:30.576Z,93.34
2023-01-25T20:35:58.187Z,95.48
2023-01-25T20:38:21.751Z,94.59
2023-01-25T20:40:46.696Z,93.12
2023-01-25T20:43:10.250Z,93.96
2023-01-25T20:45:34.878Z,92.19
2023-01-25T20:47:58.456Z,92.34
2023-01-25T20:50:22.099Z,91.35
2023-01-25T20:52:45.612Z,90.78
2023-01-25T20:55:10.892Z,91.19
2023-01-25T20:57:35.990Z,91.17
2023-01-25T20:59:59.540Z,92.76
2023-01-25T21:02:23.182Z,91.78
2023-01-25T21:04:46.888Z,91.09
2023-01-25T21:07:10.468Z,92.53
2023-01-25T21:09:34.068Z,93.31
2023-01-25T21:11:57.584Z,92.74
2023-01-25T21:14:22.570Z,92.98
2023-01-25T21:16:46.080Z,92.47
2023-01-25T21:19:09.820Z,92.45
2023-01-25T21:21:34.865Z,91.30
2023-01-25T21:24:02.521Z,92.04
2023-01-25T21:26:29.072Z,91.54
2023-01-25T21:28:55.010Z,92.57
2023-01-25T21:31:22.281Z,91.69
2023-01-25T21:33:46.366Z,91.46
2023-01-25T21:36:11.896Z,91.23
2023-01-25T21:38:35.824Z,94.09
2023-01-25T21:41:02.229Z,94.82
2023-01-25T21:43:25.823Z,92.84
2023-01-25T21:46:07.032Z,93.71
2023-01-25T21:48:48.759Z,95.02
2023-01-25T21:51:30.602Z,94.71
2023-01-25T21:53:54.251Z,93.49
2023-01-25T21:56:17.748Z,93.34
2023-01-25T21:58:41.338Z,96.19
2023-01-25T22:01:09.709Z,95.66
2023-01-25T22:03:34.666Z,95.40
2023-01-25T22:05:58.204Z,93.82
2023-01-25T22:08:21.754Z,94.32
2023-01-25T22:10:45.259Z,92.83
2023-01-25T22:13:08.802Z,91.98
2023-01-25T22:15:33.800Z,91.54
2023-01-25T22:17:57.484Z,90.94
2023-01-25T22:20:22.504Z,90.85
2023-01-25T22:22:46.067Z,91.08
2023-01-25T22:25:10.741Z,91.21
2023-01-25T22:27:46.539Z,91.68
2023-01-25T22:30:13.206Z,92.12
2023-01-25T22:32:36.919Z,92.52
2023-01-25T22:35:00.521Z,91.50
2023-01-25T22:37:25.436Z,92.84
2023-01-25T22:39:49.011Z,91.77
2023-01-25T22:42:12.515Z,91.85
2023-01-25T22:44:36.055Z,91.04
2023-01-25T22:46:59.565Z,91.88
2023-01-25T22:49:23.201Z,91.45
2023-01-25T22:51:46.785Z,90.76
2023-01-25T22:54:11.820Z,91.66
2023-01-25T22:56:35.760Z,91.21
2023-01-25T22:59:00.568Z,90.83
2023-01-25T23:01:27.055Z,91.04
2023-01-25T23:03:52.738Z,91.58
2023-01-25T23:06:18.881Z,92.14
2023-01-25T23:08:43.521Z,92.59
2023-01-25T23:11:11.466Z,91.93
2023-01-25T23:13:37.021Z,90.73
2023-01-25T23:16:04.020Z,92.86
2023-01-25T23:18:44.696Z,93.54
2023-01-25T23:21:08.732Z,92.13
2023-01-25T23:23:32.508Z,91.97
2023-01-25T23:25:58.077Z,90.89
2023-01-25T23:28:22.968Z,91.32
2023-01-25T23:30:46.641Z,91.04
2023-01-25T23:33:10.228Z,90.45
2023-01-25T23:35:33.859Z,90.07
2023-01-25T23:37:57.369Z,91.78
2023-01-25T23:40:21.054Z,90.94
2023-01-25T23:42:44.591Z,90.30
2023-01-25T23:45:12.038Z,90.25
2023-01-25T23:47:36.041Z,90.08
2023-01-25T23:49:59.684Z,90.89
2023-01-25T23:52:23.190Z,91.43
2023-01-25T23:54:46.811Z,90.76
2023-01-25T23:57:10.314Z,88.82
2023-01-25T23:59:35.375Z,89.70
